sensor_id;sensor_type;location;lat;lon;timestamp;temperature;humidity
55004;DHT22;40900;52.710;6.438;2023-07-30T00:02:18;16.00;99.90
55004;DHT22;40900;52.710;6.438;2023-07-30T00:04:45;16.10;99.90
55004;DHT22;40900;52.710;6.438;2023-07-30T00:07:11;16.10;99.90
55004;DHT22;40900;52.710;6.438;2023-07-30T00:09:38;16.00;99.90
55004;DHT22;40900;52.710;6.438;2023-07-30T00:12:08;16.00;99.90
55004;DHT22;40900;52.710;6.438;2023-07-30T00:14:34;15.90;99.90
55004;DHT22;40900;52.710;6.438;2023-07-30T00:17:00;15.90;99.90
55004;DHT22;40900;52.710;6.438;2023-07-30T00:19:26;15.90;99.90
55004;DHT22;40900;52.710;6.438;2023-07-30T00:21:51;15.90;99.90
55004;DHT22;40900;52.710;6.438;2023-07-30T00:24:17;15.90;99.90
55004;DHT22;40900;52.710;6.438;2023-07-30T00:26:43;15.90;99.90
55004;DHT22;40900;52.710;6.438;2023-07-30T00:29:09;15.90;99.90
55004;DHT22;40900;52.710;6.438;2023-07-30T00:31:34;15.80;99.90
55004;DHT22;40900;52.710;6.438;2023-07-30T00:34:01;15.70;99.90
55004;DHT22;40900;52.710;6.438;2023-07-30T00:36:26;15.70;99.90
55004;DHT22;40900;52.710;6.438;2023-07-30T00:38:52;15.70;99.90
55004;DHT22;40900;52.710;6.438;2023-07-30T00:41:18;15.60;99.90
55004;DHT22;40900;52.710;6.438;2023-07-30T00:43:44;15.60;99.90
55004;DHT22;40900;52.710;6.438;2023-07-30T00:46:11;15.60;99.90
55004;DHT22;40900;52.710;6.438;2023-07-30T00:48:37;15.60;99.90
55004;DHT22;40900;52.710;6.438;2023-07-30T00:51:03;15.50;99.90
55004;DHT22;40900;52.710;6.438;2023-07-30T00:53:29;15.50;99.90
55004;DHT22;40900;52.710;6.438;2023-07-30T00:55:55;15.50;99.90
55004;DHT22;40900;52.710;6.438;2023-07-30T00:58:21;15.40;99.90
55004;DHT22;40900;52.710;6.438;2023-07-30T01:00:48;15.40;99.90
55004;DHT22;40900;52.710;6.438;2023-07-30T01:03:14;15.50;99.90
55004;DHT22;40900;52.710;6.438;2023-07-30T01:05:40;15.40;99.90
55004;DHT22;40900;52.710;6.438;2023-07-30T01:08:05;15.40;99.90
55004;DHT22;40900;52.710;6.438;2023-07-30T01:10:32;15.40;99.90
55004;DHT22;40900;52.710;6.438;2023-07-30T01:13:01;15.40;99.90
55004;DHT22;40900;52.710;6.438;2023-07-30T01:15:29;15.30;99.90
55004;DHT22;40900;52.710;6.438;2023-07-30T01:17:55;15.30;99.90
55004;DHT22;40900;52.710;6.438;2023-07-30T01:20:21;15.30;99.90
55004;DHT22;40900;52.710;6.438;2023-07-30T01:22:47;15.30;99.90
55004;DHT22;40900;52.710;6.438;2023-07-30T01:25:14;15.30;99.90
55004;DHT22;40900;52.710;6.438;2023-07-30T01:27:46;15.30;99.90
55004;DHT22;40900;52.710;6.438;2023-07-30T01:32:42;15.30;99.90
55004;DHT22;40900;52.710;6.438;2023-07-30T01:35:08;15.30;99.90
55004;DHT22;40900;52.710;6.438;2023-07-30T01:37:35;15.30;99.90
55004;DHT22;40900;52.710;6.438;2023-07-30T01:40:02;15.30;99.90
55004;DHT22;40900;52.710;6.438;2023-07-30T01:42:29;15.30;99.90
55004;DHT22;40900;52.710;6.438;2023-07-30T01:44:55;15.30;99.90
55004;DHT22;40900;52.710;6.438;2023-07-30T01:47:21;15.30;99.90
55004;DHT22;40900;52.710;6.438;2023-07-30T01:49:47;15.20;99.90
55004;DHT22;40900;52.710;6.438;2023-07-30T01:52:12;15.20;99.90
55004;DHT22;40900;52.710;6.438;2023-07-30T01:54:38;15.10;99.90
55004;DHT22;40900;52.710;6.438;2023-07-30T01:57:05;15.20;99.90
55004;DHT22;40900;52.710;6.438;2023-07-30T01:59:32;15.20;99.90
55004;DHT22;40900;52.710;6.438;2023-07-30T02:01:58;15.10;99.90
55004;DHT22;40900;52.710;6.438;2023-07-30T02:04:24;15.10;99.90
55004;DHT22;40900;52.710;6.438;2023-07-30T02:06:49;15.10;99.90
55004;DHT22;40900;52.710;6.438;2023-07-30T02:09:15;15.10;99.90
55004;DHT22;40900;52.710;6.438;2023-07-30T02:11:41;15.10;99.90
55004;DHT22;40900;52.710;6.438;2023-07-30T02:14:07;15.10;99.90
55004;DHT22;40900;52.710;6.438;2023-07-30T02:16:32;15.00;99.90
55004;DHT22;40900;52.710;6.438;2023-07-30T02:18:58;15.00;99.90
55004;DHT22;40900;52.710;6.438;2023-07-30T02:21:24;15.00;99.90
55004;DHT22;40900;52.710;6.438;2023-07-30T02:23:49;14.90;99.90
55004;DHT22;40900;52.710;6.438;2023-07-30T02:26:15;14.90;99.90
55004;DHT22;40900;52.710;6.438;2023-07-30T02:28:41;14.90;99.90
55004;DHT22;40900;52.710;6.438;2023-07-30T02:31:06;14.90;99.90
55004;DHT22;40900;52.710;6.438;2023-07-30T02:33:32;14.90;99.90
55004;DHT22;40900;52.710;6.438;2023-07-30T02:35:58;14.90;99.90
55004;DHT22;40900;52.710;6.438;2023-07-30T02:38:23;14.90;99.90
55004;DHT22;40900;52.710;6.438;2023-07-30T02:40:49;14.90;99.90
55004;DHT22;40900;52.710;6.438;2023-07-30T02:43:15;14.90;99.90
55004;DHT22;40900;52.710;6.438;2023-07-30T02:45:40;14.90;99.90
55004;DHT22;40900;52.710;6.438;2023-07-30T02:48:06;14.90;99.90
55004;DHT22;40900;52.710;6.438;2023-07-30T02:50:32;14.90;99.90
55004;DHT22;40900;52.710;6.438;2023-07-30T02:52:58;14.90;99.90
55004;DHT22;40900;52.710;6.438;2023-07-30T02:55:23;14.90;99.90
55004;DHT22;40900;52.710;6.438;2023-07-30T02:57:49;14.90;99.90
55004;DHT22;40900;52.710;6.438;2023-07-30T03:00:15;15.00;99.90
55004;DHT22;40900;52.710;6.438;2023-07-30T03:02:41;14.90;99.90
55004;DHT22;40900;52.710;6.438;2023-07-30T03:05:07;14.90;99.90
55004;DHT22;40900;52.710;6.438;2023-07-30T03:07:33;14.90;99.90
55004;DHT22;40900;52.710;6.438;2023-07-30T03:09:59;14.90;99.90
55004;DHT22;40900;52.710;6.438;2023-07-30T03:12:24;14.90;99.90
55004;DHT22;40900;52.710;6.438;2023-07-30T03:14:50;15.00;99.90
55004;DHT22;40900;52.710;6.438;2023-07-30T03:17:16;14.90;99.90
55004;DHT22;40900;52.710;6.438;2023-07-30T03:19:41;14.90;99.90
55004;DHT22;40900;52.710;6.438;2023-07-30T03:22:07;14.90;99.90
55004;DHT22;40900;52.710;6.438;2023-07-30T03:24:33;14.90;99.90
55004;DHT22;40900;52.710;6.438;2023-07-30T03:26:59;15.00;99.90
55004;DHT22;40900;52.710;6.438;2023-07-30T03:29:24;15.00;99.90
55004;DHT22;40900;52.710;6.438;2023-07-30T03:31:50;15.00;99.90
55004;DHT22;40900;52.710;6.438;2023-07-30T03:34:16;15.00;99.90
55004;DHT22;40900;52.710;6.438;2023-07-30T03:36:42;15.00;99.90
55004;DHT22;40900;52.710;6.438;2023-07-30T03:39:07;15.00;99.90
55004;DHT22;40900;52.710;6.438;2023-07-30T03:41:33;15.00;99.90
55004;DHT22;40900;52.710;6.438;2023-07-30T03:44:00;14.90;99.90
55004;DHT22;40900;52.710;6.438;2023-07-30T03:46:26;14.90;99.90
55004;DHT22;40900;52.710;6.438;2023-07-30T03:48:52;14.90;99.90
55004;DHT22;40900;52.710;6.438;2023-07-30T03:51:18;14.90;99.90
55004;DHT22;40900;52.710;6.438;2023-07-30T03:53:45;14.80;99.90
55004;DHT22;40900;52.710;6.438;2023-07-30T03:56:10;14.80;99.90
55004;DHT22;40900;52.710;6.438;2023-07-30T03:58:36;14.70;99.90
55004;DHT22;40900;52.710;6.438;2023-07-30T04:01:02;14.70;99.90
55004;DHT22;40900;52.710;6.438;2023-07-30T04:03:28;14.80;99.90
55004;DHT22;40900;52.710;6.438;2023-07-30T04:05:53;14.80;99.90
55004;DHT22;40900;52.710;6.438;2023-07-30T04:08:19;14.70;99.90
55004;DHT22;40900;52.710;6.438;2023-07-30T04:10:45;14.70;99.90
55004;DHT22;40900;52.710;6.438;2023-07-30T04:13:11;14.70;99.90
55004;DHT22;40900;52.710;6.438;2023-07-30T04:15:36;14.70;99.90
55004;DHT22;40900;52.710;6.438;2023-07-30T04:18:02;14.70;99.90
55004;DHT22;40900;52.710;6.438;2023-07-30T04:20:28;14.80;99.90
55004;DHT22;40900;52.710;6.438;2023-07-30T04:22:53;14.70;99.90
55004;DHT22;40900;52.710;6.438;2023-07-30T04:25:19;14.70;99.90
55004;DHT22;40900;52.710;6.438;2023-07-30T04:27:45;14.70;99.90
55004;DHT22;40900;52.710;6.438;2023-07-30T04:30:11;14.70;99.90
55004;DHT22;40900;52.710;6.438;2023-07-30T04:32:37;14.80;99.90
55004;DHT22;40900;52.710;6.438;2023-07-30T04:35:02;14.80;99.90
55004;DHT22;40900;52.710;6.438;2023-07-30T04:37:28;14.80;99.90
55004;DHT22;40900;52.710;6.438;2023-07-30T04:39:54;14.90;99.90
55004;DHT22;40900;52.710;6.438;2023-07-30T04:42:20;14.80;99.90
55004;DHT22;40900;52.710;6.438;2023-07-30T04:44:46;14.90;99.90
55004;DHT22;40900;52.710;6.438;2023-07-30T04:47:12;14.90;99.90
55004;DHT22;40900;52.710;6.438;2023-07-30T04:49:37;15.00;99.90
55004;DHT22;40900;52.710;6.438;2023-07-30T04:52:07;15.00;99.90
55004;DHT22;40900;52.710;6.438;2023-07-30T04:54:33;15.00;99.90
55004;DHT22;40900;52.710;6.438;2023-07-30T04:56:59;15.00;99.90
55004;DHT22;40900;52.710;6.438;2023-07-30T04:59:25;15.00;99.90
55004;DHT22;40900;52.710;6.438;2023-07-30T05:01:50;15.10;99.90
55004;DHT22;40900;52.710;6.438;2023-07-30T05:04:16;15.10;99.90
55004;DHT22;40900;52.710;6.438;2023-07-30T05:06:42;15.10;99.90
55004;DHT22;40900;52.710;6.438;2023-07-30T05:09:07;15.10;99.90
55004;DHT22;40900;52.710;6.438;2023-07-30T05:11:33;15.20;99.90
55004;DHT22;40900;52.710;6.438;2023-07-30T05:13:59;15.30;99.90
55004;DHT22;40900;52.710;6.438;2023-07-30T05:16:25;15.30;99.90
55004;DHT22;40900;52.710;6.438;2023-07-30T05:18:51;15.30;99.90
55004;DHT22;40900;52.710;6.438;2023-07-30T05:21:22;15.30;99.90
55004;DHT22;40900;52.710;6.438;2023-07-30T05:23:48;15.40;99.90
55004;DHT22;40900;52.710;6.438;2023-07-30T05:26:13;15.40;99.90
55004;DHT22;40900;52.710;6.438;2023-07-30T05:28:39;15.50;99.90
55004;DHT22;40900;52.710;6.438;2023-07-30T05:31:05;15.40;99.90
55004;DHT22;40900;52.710;6.438;2023-07-30T05:33:31;15.50;99.90
55004;DHT22;40900;52.710;6.438;2023-07-30T05:35:56;15.60;99.90
55004;DHT22;40900;52.710;6.438;2023-07-30T05:38:22;15.50;99.90
55004;DHT22;40900;52.710;6.438;2023-07-30T05:40:48;15.60;99.90
55004;DHT22;40900;52.710;6.438;2023-07-30T05:43:13;15.60;99.90
55004;DHT22;40900;52.710;6.438;2023-07-30T05:45:39;15.70;99.90
55004;DHT22;40900;52.710;6.438;2023-07-30T05:48:05;15.70;99.90
55004;DHT22;40900;52.710;6.438;2023-07-30T05:50:30;15.70;99.90
55004;DHT22;40900;52.710;6.438;2023-07-30T05:52:56;15.80;99.90
55004;DHT22;40900;52.710;6.438;2023-07-30T05:55:22;15.80;99.90
55004;DHT22;40900;52.710;6.438;2023-07-30T05:57:48;15.80;99.90
55004;DHT22;40900;52.710;6.438;2023-07-30T06:00:15;15.80;99.90
55004;DHT22;40900;52.710;6.438;2023-07-30T06:02:40;15.80;99.90
55004;DHT22;40900;52.710;6.438;2023-07-30T06:05:07;15.80;99.90
55004;DHT22;40900;52.710;6.438;2023-07-30T06:07:32;15.80;99.90
55004;DHT22;40900;52.710;6.438;2023-07-30T06:09:58;15.90;99.90
55004;DHT22;40900;52.710;6.438;2023-07-30T06:12:24;16.00;99.90
55004;DHT22;40900;52.710;6.438;2023-07-30T06:14:50;16.00;99.90
55004;DHT22;40900;52.710;6.438;2023-07-30T06:17:15;16.00;99.90
55004;DHT22;40900;52.710;6.438;2023-07-30T06:19:41;16.10;99.90
55004;DHT22;40900;52.710;6.438;2023-07-30T06:22:07;16.10;99.90
55004;DHT22;40900;52.710;6.438;2023-07-30T06:24:33;16.10;99.90
55004;DHT22;40900;52.710;6.438;2023-07-30T06:26:58;16.20;99.90
55004;DHT22;40900;52.710;6.438;2023-07-30T06:29:24;16.20;99.90
55004;DHT22;40900;52.710;6.438;2023-07-30T06:31:50;16.20;99.90
55004;DHT22;40900;52.710;6.438;2023-07-30T06:34:15;16.30;99.90
55004;DHT22;40900;52.710;6.438;2023-07-30T06:36:41;16.40;99.90
55004;DHT22;40900;52.710;6.438;2023-07-30T06:39:07;16.50;99.90
55004;DHT22;40900;52.710;6.438;2023-07-30T06:41:33;16.60;99.90
55004;DHT22;40900;52.710;6.438;2023-07-30T06:43:59;16.60;99.90
55004;DHT22;40900;52.710;6.438;2023-07-30T06:46:24;16.70;99.90
55004;DHT22;40900;52.710;6.438;2023-07-30T06:48:50;16.80;99.90
55004;DHT22;40900;52.710;6.438;2023-07-30T06:51:19;16.90;99.90
55004;DHT22;40900;52.710;6.438;2023-07-30T06:53:45;17.00;99.90
55004;DHT22;40900;52.710;6.438;2023-07-30T06:56:10;17.10;99.90
55004;DHT22;40900;52.710;6.438;2023-07-30T06:58:36;17.20;99.90
55004;DHT22;40900;52.710;6.438;2023-07-30T07:01:02;17.30;99.90
55004;DHT22;40900;52.710;6.438;2023-07-30T07:03:28;17.30;99.90
55004;DHT22;40900;52.710;6.438;2023-07-30T07:05:54;17.40;99.90
55004;DHT22;40900;52.710;6.438;2023-07-30T07:08:21;17.40;99.90
55004;DHT22;40900;52.710;6.438;2023-07-30T07:10:47;17.40;99.90
55004;DHT22;40900;52.710;6.438;2023-07-30T07:13:13;17.50;99.90
55004;DHT22;40900;52.710;6.438;2023-07-30T07:15:41;17.60;99.90
55004;DHT22;40900;52.710;6.438;2023-07-30T07:18:07;17.60;99.90
55004;DHT22;40900;52.710;6.438;2023-07-30T07:20:33;17.60;99.90
55004;DHT22;40900;52.710;6.438;2023-07-30T07:22:59;17.60;99.90
55004;DHT22;40900;52.710;6.438;2023-07-30T07:25:24;17.60;99.90
55004;DHT22;40900;52.710;6.438;2023-07-30T07:27:50;17.60;99.90
55004;DHT22;40900;52.710;6.438;2023-07-30T07:30:16;17.60;99.90
55004;DHT22;40900;52.710;6.438;2023-07-30T07:32:42;17.70;99.90
55004;DHT22;40900;52.710;6.438;2023-07-30T07:35:09;17.70;99.90
55004;DHT22;40900;52.710;6.438;2023-07-30T07:37:35;17.70;99.90
55004;DHT22;40900;52.710;6.438;2023-07-30T07:40:01;17.80;99.90
55004;DHT22;40900;52.710;6.438;2023-07-30T07:42:29;18.00;99.90
55004;DHT22;40900;52.710;6.438;2023-07-30T07:44:55;18.10;99.90
55004;DHT22;40900;52.710;6.438;2023-07-30T07:47:21;18.30;99.90
55004;DHT22;40900;52.710;6.438;2023-07-30T07:49:47;18.30;99.90
55004;DHT22;40900;52.710;6.438;2023-07-30T07:52:13;18.30;99.90
55004;DHT22;40900;52.710;6.438;2023-07-30T07:54:40;18.50;99.90
55004;DHT22;40900;52.710;6.438;2023-07-30T07:57:07;18.90;99.90
55004;DHT22;40900;52.710;6.438;2023-07-30T07:59:34;19.40;99.90
55004;DHT22;40900;52.710;6.438;2023-07-30T08:02:00;19.80;99.90
55004;DHT22;40900;52.710;6.438;2023-07-30T08:04:25;19.80;99.90
55004;DHT22;40900;52.710;6.438;2023-07-30T08:06:51;19.80;99.90
55004;DHT22;40900;52.710;6.438;2023-07-30T08:09:17;19.80;99.90
55004;DHT22;40900;52.710;6.438;2023-07-30T08:11:43;19.90;99.90
55004;DHT22;40900;52.710;6.438;2023-07-30T08:14:08;19.90;99.90
55004;DHT22;40900;52.710;6.438;2023-07-30T08:16:34;19.60;99.90
55004;DHT22;40900;52.710;6.438;2023-07-30T08:19:00;19.30;99.90
55004;DHT22;40900;52.710;6.438;2023-07-30T08:21:26;19.40;99.90
55004;DHT22;40900;52.710;6.438;2023-07-30T08:23:51;19.20;99.90
55004;DHT22;40900;52.710;6.438;2023-07-30T08:26:17;19.10;99.90
55004;DHT22;40900;52.710;6.438;2023-07-30T08:28:43;19.50;99.90
55004;DHT22;40900;52.710;6.438;2023-07-30T08:31:09;19.90;99.90
55004;DHT22;40900;52.710;6.438;2023-07-30T08:33:34;20.50;99.90
55004;DHT22;40900;52.710;6.438;2023-07-30T08:36:00;20.60;99.90
55004;DHT22;40900;52.710;6.438;2023-07-30T08:38:28;20.20;99.90
55004;DHT22;40900;52.710;6.438;2023-07-30T08:40:54;19.90;99.90
55004;DHT22;40900;52.710;6.438;2023-07-30T08:43:19;19.90;99.90
55004;DHT22;40900;52.710;6.438;2023-07-30T08:45:45;19.70;99.90
55004;DHT22;40900;52.710;6.438;2023-07-30T08:48:11;19.70;99.90
55004;DHT22;40900;52.710;6.438;2023-07-30T08:50:37;19.40;99.90
55004;DHT22;40900;52.710;6.438;2023-07-30T08:53:03;19.20;99.90
55004;DHT22;40900;52.710;6.438;2023-07-30T08:55:29;19.10;99.90
55004;DHT22;40900;52.710;6.438;2023-07-30T08:58:01;19.00;99.90
55004;DHT22;40900;52.710;6.438;2023-07-30T09:00:30;19.00;99.90
55004;DHT22;40900;52.710;6.438;2023-07-30T09:03:00;19.00;99.90
55004;DHT22;40900;52.710;6.438;2023-07-30T09:05:26;19.10;99.90
55004;DHT22;40900;52.710;6.438;2023-07-30T09:07:55;19.30;99.90
55004;DHT22;40900;52.710;6.438;2023-07-30T09:10:21;20.20;99.90
55004;DHT22;40900;52.710;6.438;2023-07-30T09:12:52;20.20;99.90
55004;DHT22;40900;52.710;6.438;2023-07-30T09:15:20;20.30;99.90
55004;DHT22;40900;52.710;6.438;2023-07-30T09:17:55;20.10;99.90
55004;DHT22;40900;52.710;6.438;2023-07-30T09:20:21;19.80;99.90
55004;DHT22;40900;52.710;6.438;2023-07-30T09:22:46;19.40;99.90
55004;DHT22;40900;52.710;6.438;2023-07-30T09:25:14;19.20;99.90
55004;DHT22;40900;52.710;6.438;2023-07-30T09:27:49;19.10;99.90
55004;DHT22;40900;52.710;6.438;2023-07-30T09:30:21;18.70;99.90
55004;DHT22;40900;52.710;6.438;2023-07-30T09:32:54;18.40;99.90
55004;DHT22;40900;52.710;6.438;2023-07-30T09:35:21;18.30;99.90
55004;DHT22;40900;52.710;6.438;2023-07-30T09:37:50;18.20;99.90
55004;DHT22;40900;52.710;6.438;2023-07-30T09:40:34;18.10;99.90
55004;DHT22;40900;52.710;6.438;2023-07-30T09:43:02;18.10;99.90
55004;DHT22;40900;52.710;6.438;2023-07-30T09:45:28;18.10;99.90
55004;DHT22;40900;52.710;6.438;2023-07-30T09:47:55;18.20;99.90
55004;DHT22;40900;52.710;6.438;2023-07-30T09:50:23;18.40;99.90
55004;DHT22;40900;52.710;6.438;2023-07-30T09:52:50;18.60;99.90
55004;DHT22;40900;52.710;6.438;2023-07-30T09:55:16;18.70;99.90
55004;DHT22;40900;52.710;6.438;2023-07-30T09:57:44;18.70;99.90
55004;DHT22;40900;52.710;6.438;2023-07-30T10:00:10;18.80;99.90
55004;DHT22;40900;52.710;6.438;2023-07-30T10:02:39;18.90;99.90
55004;DHT22;40900;52.710;6.438;2023-07-30T10:05:16;19.00;99.90
55004;DHT22;40900;52.710;6.438;2023-07-30T10:08:29;18.90;99.90
55004;DHT22;40900;52.710;6.438;2023-07-30T10:10:35;18.80;99.90
55004;DHT22;40900;52.710;6.438;2023-07-30T10:13:06;18.90;99.90
55004;DHT22;40900;52.710;6.438;2023-07-30T10:15:37;18.80;99.90
55004;DHT22;40900;52.710;6.438;2023-07-30T10:18:03;18.40;99.90
55004;DHT22;40900;52.710;6.438;2023-07-30T10:20:31;18.20;99.90
55004;DHT22;40900;52.710;6.438;2023-07-30T10:22:58;18.00;99.90
55004;DHT22;40900;52.710;6.438;2023-07-30T10:25:30;17.80;99.90
55004;DHT22;40900;52.710;6.438;2023-07-30T10:27:57;17.60;99.90
55004;DHT22;40900;52.710;6.438;2023-07-30T10:30:30;17.40;99.90
55004;DHT22;40900;52.710;6.438;2023-07-30T10:38:19;18.00;99.90
55004;DHT22;40900;52.710;6.438;2023-07-30T10:41:06;18.20;99.90
55004;DHT22;40900;52.710;6.438;2023-07-30T10:43:47;18.40;99.90
55004;DHT22;40900;52.710;6.438;2023-07-30T10:46:15;18.40;99.90
55004;DHT22;40900;52.710;6.438;2023-07-30T10:48:44;18.50;99.90
55004;DHT22;40900;52.710;6.438;2023-07-30T10:51:15;18.50;99.90
55004;DHT22;40900;52.710;6.438;2023-07-30T10:53:49;18.60;99.90
55004;DHT22;40900;52.710;6.438;2023-07-30T10:56:17;19.40;99.90
55004;DHT22;40900;52.710;6.438;2023-07-30T10:58:43;20.00;99.90
55004;DHT22;40900;52.710;6.438;2023-07-30T11:01:14;20.70;99.90
55004;DHT22;40900;52.710;6.438;2023-07-30T11:03:40;21.00;99.90
55004;DHT22;40900;52.710;6.438;2023-07-30T11:06:05;21.40;99.90
55004;DHT22;40900;52.710;6.438;2023-07-30T11:08:38;21.60;99.90
55004;DHT22;40900;52.710;6.438;2023-07-30T11:11:07;22.00;99.90
55004;DHT22;40900;52.710;6.438;2023-07-30T11:13:41;22.20;99.90
55004;DHT22;40900;52.710;6.438;2023-07-30T11:16:08;21.90;99.90
55004;DHT22;40900;52.710;6.438;2023-07-30T11:18:34;22.10;99.90
55004;DHT22;40900;52.710;6.438;2023-07-30T11:21:11;22.20;99.90
55004;DHT22;40900;52.710;6.438;2023-07-30T11:23:42;22.20;99.90
55004;DHT22;40900;52.710;6.438;2023-07-30T11:26:12;22.30;99.90
55004;DHT22;40900;52.710;6.438;2023-07-30T11:28:39;22.30;99.90
55004;DHT22;40900;52.710;6.438;2023-07-30T11:31:08;22.20;99.90
55004;DHT22;40900;52.710;6.438;2023-07-30T11:33:36;22.20;99.90
55004;DHT22;40900;52.710;6.438;2023-07-30T11:36:03;22.20;99.90
55004;DHT22;40900;52.710;6.438;2023-07-30T11:38:30;22.20;99.90
55004;DHT22;40900;52.710;6.438;2023-07-30T11:40:57;21.90;99.90
55004;DHT22;40900;52.710;6.438;2023-07-30T11:43:24;21.80;99.90
55004;DHT22;40900;52.710;6.438;2023-07-30T11:46:06;21.90;99.90
55004;DHT22;40900;52.710;6.438;2023-07-30T11:48:33;21.90;99.90
55004;DHT22;40900;52.710;6.438;2023-07-30T11:50:58;22.00;99.90
55004;DHT22;40900;52.710;6.438;2023-07-30T11:53:44;22.10;99.90
55004;DHT22;40900;52.710;6.438;2023-07-30T11:56:42;22.20;99.90
55004;DHT22;40900;52.710;6.438;2023-07-30T11:59:09;22.20;99.90
55004;DHT22;40900;52.710;6.438;2023-07-30T12:01:36;22.20;99.90
55004;DHT22;40900;52.710;6.438;2023-07-30T12:04:04;21.80;99.90
55004;DHT22;40900;52.710;6.438;2023-07-30T12:06:45;21.80;99.90
55004;DHT22;40900;52.710;6.438;2023-07-30T12:09:16;21.90;99.90
55004;DHT22;40900;52.710;6.438;2023-07-30T12:12:01;22.10;99.90
55004;DHT22;40900;52.710;6.438;2023-07-30T12:14:29;22.00;99.90
55004;DHT22;40900;52.710;6.438;2023-07-30T12:17:01;21.60;99.90
55004;DHT22;40900;52.710;6.438;2023-07-30T12:19:27;21.70;99.90
55004;DHT22;40900;52.710;6.438;2023-07-30T12:21:53;21.90;99.90
55004;DHT22;40900;52.710;6.438;2023-07-30T12:24:19;22.00;99.90
55004;DHT22;40900;52.710;6.438;2023-07-30T12:26:45;22.20;99.90
55004;DHT22;40900;52.710;6.438;2023-07-30T12:29:10;21.80;99.90
55004;DHT22;40900;52.710;6.438;2023-07-30T12:31:36;22.10;99.90
55004;DHT22;40900;52.710;6.438;2023-07-30T12:34:02;21.90;99.90
55004;DHT22;40900;52.710;6.438;2023-07-30T12:36:28;21.90;99.90
55004;DHT22;40900;52.710;6.438;2023-07-30T12:38:54;21.90;99.90
55004;DHT22;40900;52.710;6.438;2023-07-30T12:41:20;21.70;99.90
55004;DHT22;40900;52.710;6.438;2023-07-30T12:43:52;21.30;99.90
55004;DHT22;40900;52.710;6.438;2023-07-30T12:46:19;21.40;99.90
55004;DHT22;40900;52.710;6.438;2023-07-30T12:48:45;21.20;99.90
55004;DHT22;40900;52.710;6.438;2023-07-30T12:51:11;21.30;99.90
55004;DHT22;40900;52.710;6.438;2023-07-30T12:53:37;21.10;99.90
55004;DHT22;40900;52.710;6.438;2023-07-30T12:56:03;20.80;99.90
55004;DHT22;40900;52.710;6.438;2023-07-30T12:58:28;20.70;99.90
55004;DHT22;40900;52.710;6.438;2023-07-30T13:00:54;20.40;99.90
55004;DHT22;40900;52.710;6.438;2023-07-30T13:03:20;20.40;99.90
55004;DHT22;40900;52.710;6.438;2023-07-30T13:05:46;20.50;99.90
55004;DHT22;40900;52.710;6.438;2023-07-30T13:08:12;20.40;99.90
55004;DHT22;40900;52.710;6.438;2023-07-30T13:10:38;20.30;99.90
55004;DHT22;40900;52.710;6.438;2023-07-30T13:13:04;20.50;99.90
55004;DHT22;40900;52.710;6.438;2023-07-30T13:15:29;20.50;99.90
55004;DHT22;40900;52.710;6.438;2023-07-30T13:17:55;20.70;99.90
55004;DHT22;40900;52.710;6.438;2023-07-30T13:20:21;20.80;99.90
55004;DHT22;40900;52.710;6.438;2023-07-30T13:22:50;21.00;99.90
55004;DHT22;40900;52.710;6.438;2023-07-30T13:25:17;21.10;99.90
55004;DHT22;40900;52.710;6.438;2023-07-30T13:27:43;21.00;99.90
55004;DHT22;40900;52.710;6.438;2023-07-30T13:30:09;21.20;99.90
55004;DHT22;40900;52.710;6.438;2023-07-30T13:32:35;21.40;99.90
55004;DHT22;40900;52.710;6.438;2023-07-30T13:35:01;21.50;99.90
55004;DHT22;40900;52.710;6.438;2023-07-30T13:37:27;21.50;99.90
55004;DHT22;40900;52.710;6.438;2023-07-30T13:39:53;21.50;99.90
55004;DHT22;40900;52.710;6.438;2023-07-30T13:42:19;21.30;99.90
55004;DHT22;40900;52.710;6.438;2023-07-30T13:44:44;21.30;99.90
55004;DHT22;40900;52.710;6.438;2023-07-30T13:47:10;21.40;99.90
55004;DHT22;40900;52.710;6.438;2023-07-30T13:49:36;21.30;99.90
55004;DHT22;40900;52.710;6.438;2023-07-30T13:52:02;21.60;99.90
55004;DHT22;40900;52.710;6.438;2023-07-30T13:54:28;21.80;99.90
55004;DHT22;40900;52.710;6.438;2023-07-30T13:56:53;21.90;99.90
55004;DHT22;40900;52.710;6.438;2023-07-30T13:59:19;21.70;99.90
55004;DHT22;40900;52.710;6.438;2023-07-30T14:01:45;21.80;99.90
55004;DHT22;40900;52.710;6.438;2023-07-30T14:04:11;21.90;99.90
55004;DHT22;40900;52.710;6.438;2023-07-30T14:06:37;22.00;99.90
55004;DHT22;40900;52.710;6.438;2023-07-30T14:09:03;21.80;99.90
55004;DHT22;40900;52.710;6.438;2023-07-30T14:11:30;21.70;99.90
55004;DHT22;40900;52.710;6.438;2023-07-30T14:13:56;21.80;99.90
55004;DHT22;40900;52.710;6.438;2023-07-30T14:16:23;21.60;99.90
55004;DHT22;40900;52.710;6.438;2023-07-30T14:18:49;21.20;99.90
55004;DHT22;40900;52.710;6.438;2023-07-30T14:21:15;21.10;99.90
55004;DHT22;40900;52.710;6.438;2023-07-30T14:23:41;21.20;99.90
55004;DHT22;40900;52.710;6.438;2023-07-30T14:26:06;21.40;99.90
55004;DHT22;40900;52.710;6.438;2023-07-30T14:28:32;21.50;99.90
55004;DHT22;40900;52.710;6.438;2023-07-30T14:30:58;21.60;99.90
55004;DHT22;40900;52.710;6.438;2023-07-30T14:33:24;21.60;99.90
55004;DHT22;40900;52.710;6.438;2023-07-30T14:35:50;21.60;99.90
55004;DHT22;40900;52.710;6.438;2023-07-30T14:38:16;21.60;99.90
55004;DHT22;40900;52.710;6.438;2023-07-30T14:40:43;21.60;99.90
55004;DHT22;40900;52.710;6.438;2023-07-30T14:43:09;21.30;99.90
55004;DHT22;40900;52.710;6.438;2023-07-30T14:45:35;21.30;99.90
55004;DHT22;40900;52.710;6.438;2023-07-30T14:48:00;21.40;99.90
55004;DHT22;40900;52.710;6.438;2023-07-30T14:50:27;21.40;99.90
55004;DHT22;40900;52.710;6.438;2023-07-30T14:52:53;21.50;99.90
55004;DHT22;40900;52.710;6.438;2023-07-30T14:55:19;21.60;99.90
55004;DHT22;40900;52.710;6.438;2023-07-30T14:57:44;21.50;99.90
55004;DHT22;40900;52.710;6.438;2023-07-30T15:00:11;21.60;99.90
55004;DHT22;40900;52.710;6.438;2023-07-30T15:02:39;21.50;99.90
55004;DHT22;40900;52.710;6.438;2023-07-30T15:05:06;21.40;99.90
55004;DHT22;40900;52.710;6.438;2023-07-30T15:07:32;21.40;99.90
55004;DHT22;40900;52.710;6.438;2023-07-30T15:09:58;21.30;99.90
55004;DHT22;40900;52.710;6.438;2023-07-30T15:12:24;21.40;99.90
55004;DHT22;40900;52.710;6.438;2023-07-30T15:14:50;21.20;99.90
55004;DHT22;40900;52.710;6.438;2023-07-30T15:17:16;21.30;99.90
55004;DHT22;40900;52.710;6.438;2023-07-30T15:19:41;21.40;99.90
55004;DHT22;40900;52.710;6.438;2023-07-30T15:22:07;21.40;99.90
55004;DHT22;40900;52.710;6.438;2023-07-30T15:24:33;21.40;99.90
55004;DHT22;40900;52.710;6.438;2023-07-30T15:26:59;21.30;99.90
55004;DHT22;40900;52.710;6.438;2023-07-30T15:29:25;21.40;99.90
55004;DHT22;40900;52.710;6.438;2023-07-30T15:31:51;21.40;99.90
55004;DHT22;40900;52.710;6.438;2023-07-30T15:34:17;21.30;99.90
55004;DHT22;40900;52.710;6.438;2023-07-30T15:36:44;21.40;99.90